sensor_id;sensor_type;location;lat;lon;timestamp;P1;durP1;ratioP1;P2;durP2;ratioP2
35689;SDS011;26977;44.830;-0.674;2023-02-04T00:00:26;30.60;;;14.82;;
35689;SDS011;26977;44.830;-0.674;2023-02-04T00:02:53;30.10;;;14.32;;
35689;SDS011;26977;44.830;-0.674;2023-02-04T00:05:18;30.33;;;14.27;;
35689;SDS011;26977;44.830;-0.674;2023-02-04T00:07:45;27.20;;;14.35;;
35689;SDS011;26977;44.830;-0.674;2023-02-04T00:10:11;22.95;;;14.13;;
35689;SDS011;26977;44.830;-0.674;2023-02-04T00:12:37;28.02;;;14.35;;
35689;SDS011;26977;44.830;-0.674;2023-02-04T00:15:03;24.10;;;13.85;;
35689;SDS011;26977;44.830;-0.674;2023-02-04T00:17:39;30.02;;;14.60;;
35689;SDS011;26977;44.830;-0.674;2023-02-04T00:20:05;31.65;;;14.23;;
35689;SDS011;26977;44.830;-0.674;2023-02-04T00:22:31;31.05;;;14.13;;
35689;SDS011;26977;44.830;-0.674;2023-02-04T00:24:57;34.05;;;15.63;;
35689;SDS011;26977;44.830;-0.674;2023-02-04T00:27:22;28.70;;;15.05;;
35689;SDS011;26977;44.830;-0.674;2023-02-04T00:29:48;35.28;;;15.55;;
35689;SDS011;26977;44.830;-0.674;2023-02-04T00:32:14;35.53;;;14.55;;
35689;SDS011;26977;44.830;-0.674;2023-02-04T00:34:40;29.67;;;15.20;;
35689;SDS011;26977;44.830;-0.674;2023-02-04T00:37:05;29.25;;;14.45;;
35689;SDS011;26977;44.830;-0.674;2023-02-04T00:39:31;33.13;;;15.30;;
35689;SDS011;26977;44.830;-0.674;2023-02-04T00:41:57;27.67;;;15.30;;
35689;SDS011;26977;44.830;-0.674;2023-02-04T00:44:23;31.67;;;15.52;;
35689;SDS011;26977;44.830;-0.674;2023-02-04T00:46:48;29.20;;;15.30;;
35689;SDS011;26977;44.830;-0.674;2023-02-04T00:49:14;32.10;;;15.02;;
35689;SDS011;26977;44.830;-0.674;2023-02-04T00:51:40;27.80;;;14.75;;
35689;SDS011;26977;44.830;-0.674;2023-02-04T00:54:10;28.40;;;14.85;;
35689;SDS011;26977;44.830;-0.674;2023-02-04T00:56:39;33.33;;;15.57;;
35689;SDS011;26977;44.830;-0.674;2023-02-04T00:59:06;33.42;;;14.80;;
35689;SDS011;26977;44.830;-0.674;2023-02-04T01:01:32;31.92;;;15.05;;
35689;SDS011;26977;44.830;-0.674;2023-02-04T01:03:58;27.52;;;15.05;;
35689;SDS011;26977;44.830;-0.674;2023-02-04T01:06:24;37.00;;;14.38;;
35689;SDS011;26977;44.830;-0.674;2023-02-04T01:08:52;30.27;;;14.38;;
35689;SDS011;26977;44.830;-0.674;2023-02-04T01:11:20;29.17;;;13.63;;
35689;SDS011;26977;44.830;-0.674;2023-02-04T01:13:46;26.17;;;14.55;;
35689;SDS011;26977;44.830;-0.674;2023-02-04T01:16:12;36.17;;;14.45;;
35689;SDS011;26977;44.830;-0.674;2023-02-04T01:18:38;31.75;;;14.57;;
35689;SDS011;26977;44.830;-0.674;2023-02-04T01:21:04;32.20;;;14.32;;
35689;SDS011;26977;44.830;-0.674;2023-02-04T01:23:30;30.80;;;13.35;;
35689;SDS011;26977;44.830;-0.674;2023-02-04T01:25:56;31.30;;;12.82;;
35689;SDS011;26977;44.830;-0.674;2023-02-04T01:28:22;25.85;;;14.55;;
35689;SDS011;26977;44.830;-0.674;2023-02-04T01:30:50;25.92;;;14.40;;
35689;SDS011;26977;44.830;-0.674;2023-02-04T01:33:16;27.15;;;12.98;;
35689;SDS011;26977;44.830;-0.674;2023-02-04T01:35:41;30.98;;;14.13;;
35689;SDS011;26977;44.830;-0.674;2023-02-04T01:38:10;22.67;;;12.13;;
35689;SDS011;26977;44.830;-0.674;2023-02-04T01:40:35;34.40;;;13.48;;
35689;SDS011;26977;44.830;-0.674;2023-02-04T01:43:01;28.85;;;13.20;;
35689;SDS011;26977;44.830;-0.674;2023-02-04T01:45:27;29.00;;;13.48;;
35689;SDS011;26977;44.830;-0.674;2023-02-04T01:47:54;27.55;;;12.68;;
35689;SDS011;26977;44.830;-0.674;2023-02-04T01:50:20;25.73;;;12.50;;
35689;SDS011;26977;44.830;-0.674;2023-02-04T01:52:46;30.77;;;12.85;;
35689;SDS011;26977;44.830;-0.674;2023-02-04T01:55:16;27.38;;;12.05;;
35689;SDS011;26977;44.830;-0.674;2023-02-04T01:57:43;24.45;;;11.88;;
35689;SDS011;26977;44.830;-0.674;2023-02-04T02:00:21;21.67;;;11.95;;
35689;SDS011;26977;44.830;-0.674;2023-02-04T02:02:53;27.38;;;11.93;;
35689;SDS011;26977;44.830;-0.674;2023-02-04T02:05:21;20.20;;;10.98;;
35689;SDS011;26977;44.830;-0.674;2023-02-04T02:07:50;30.13;;;12.77;;
35689;SDS011;26977;44.830;-0.674;2023-02-04T02:10:19;22.30;;;12.13;;
35689;SDS011;26977;44.830;-0.674;2023-02-04T02:12:45;23.02;;;11.48;;
35689;SDS011;26977;44.830;-0.674;2023-02-04T02:15:12;22.48;;;11.65;;
35689;SDS011;26977;44.830;-0.674;2023-02-04T02:17:38;24.95;;;12.32;;
35689;SDS011;26977;44.830;-0.674;2023-02-04T02:20:05;25.02;;;12.13;;
35689;SDS011;26977;44.830;-0.674;2023-02-04T02:22:34;20.65;;;11.82;;
35689;SDS011;26977;44.830;-0.674;2023-02-04T02:25:12;23.00;;;12.50;;
35689;SDS011;26977;44.830;-0.674;2023-02-04T02:27:39;30.45;;;13.70;;
35689;SDS011;26977;44.830;-0.674;2023-02-04T02:30:05;36.10;;;14.63;;
35689;SDS011;26977;44.830;-0.674;2023-02-04T02:32:35;27.20;;;14.50;;
35689;SDS011;26977;44.830;-0.674;2023-02-04T02:35:01;27.23;;;14.57;;
35689;SDS011;26977;44.830;-0.674;2023-02-04T02:37:28;30.80;;;14.60;;
35689;SDS011;26977;44.830;-0.674;2023-02-04T02:39:54;27.88;;;14.32;;
35689;SDS011;26977;44.830;-0.674;2023-02-04T02:42:20;24.55;;;13.18;;
35689;SDS011;26977;44.830;-0.674;2023-02-04T02:44:46;31.08;;;13.55;;
35689;SDS011;26977;44.830;-0.674;2023-02-04T02:47:17;27.48;;;12.85;;
35689;SDS011;26977;44.830;-0.674;2023-02-04T02:49:46;27.58;;;13.50;;
35689;SDS011;26977;44.830;-0.674;2023-02-04T02:52:16;32.67;;;14.30;;
35689;SDS011;26977;44.830;-0.674;2023-02-04T02:54:42;27.95;;;14.00;;
35689;SDS011;26977;44.830;-0.674;2023-02-04T02:57:15;30.50;;;14.93;;
35689;SDS011;26977;44.830;-0.674;2023-02-04T02:59:52;28.55;;;14.70;;
35689;SDS011;26977;44.830;-0.674;2023-02-04T03:02:21;29.52;;;15.18;;
35689;SDS011;26977;44.830;-0.674;2023-02-04T03:04:49;29.75;;;14.70;;
35689;SDS011;26977;44.830;-0.674;2023-02-04T03:07:19;29.30;;;14.77;;
35689;SDS011;26977;44.830;-0.674;2023-02-04T03:09:46;30.05;;;15.65;;
35689;SDS011;26977;44.830;-0.674;2023-02-04T03:12:13;28.50;;;14.55;;
35689;SDS011;26977;44.830;-0.674;2023-02-04T03:14:39;29.45;;;16.10;;
35689;SDS011;26977;44.830;-0.674;2023-02-04T03:17:06;25.08;;;14.57;;
35689;SDS011;26977;44.830;-0.674;2023-02-04T03:19:34;29.70;;;15.60;;
35689;SDS011;26977;44.830;-0.674;2023-02-04T03:22:03;28.05;;;15.32;;
35689;SDS011;26977;44.830;-0.674;2023-02-04T03:24:32;31.30;;;15.95;;
35689;SDS011;26977;44.830;-0.674;2023-02-04T03:26:59;31.05;;;16.05;;
35689;SDS011;26977;44.830;-0.674;2023-02-04T03:29:25;30.52;;;16.77;;
35689;SDS011;26977;44.830;-0.674;2023-02-04T03:31:51;37.80;;;16.30;;
35689;SDS011;26977;44.830;-0.674;2023-02-04T03:34:19;34.75;;;16.35;;
35689;SDS011;26977;44.830;-0.674;2023-02-04T03:36:45;30.00;;;15.98;;
35689;SDS011;26977;44.830;-0.674;2023-02-04T03:39:11;32.22;;;15.27;;
35689;SDS011;26977;44.830;-0.674;2023-02-04T03:41:37;32.85;;;16.95;;
35689;SDS011;26977;44.830;-0.674;2023-02-04T03:44:03;27.85;;;16.30;;
35689;SDS011;26977;44.830;-0.674;2023-02-04T03:46:28;33.20;;;15.95;;
35689;SDS011;26977;44.830;-0.674;2023-02-04T03:48:54;30.10;;;16.27;;
35689;SDS011;26977;44.830;-0.674;2023-02-04T03:51:21;28.73;;;16.73;;
35689;SDS011;26977;44.830;-0.674;2023-02-04T03:53:46;29.42;;;16.55;;
35689;SDS011;26977;44.830;-0.674;2023-02-04T03:56:14;31.48;;;17.08;;
35689;SDS011;26977;44.830;-0.674;2023-02-04T03:58:40;31.13;;;15.45;;
35689;SDS011;26977;44.830;-0.674;2023-02-04T04:01:06;34.45;;;16.75;;
35689;SDS011;26977;44.830;-0.674;2023-02-04T04:03:32;33.85;;;15.98;;
35689;SDS011;26977;44.830;-0.674;2023-02-04T04:05:57;29.80;;;16.35;;
35689;SDS011;26977;44.830;-0.674;2023-02-04T04:08:23;29.70;;;16.25;;
35689;SDS011;26977;44.830;-0.674;2023-02-04T04:10:49;33.63;;;16.00;;
35689;SDS011;26977;44.830;-0.674;2023-02-04T04:13:15;30.00;;;15.63;;
35689;SDS011;26977;44.830;-0.674;2023-02-04T04:15:52;34.25;;;15.82;;
35689;SDS011;26977;44.830;-0.674;2023-02-04T04:18:17;29.83;;;15.43;;
35689;SDS011;26977;44.830;-0.674;2023-02-04T04:20:43;35.53;;;16.38;;
35689;SDS011;26977;44.830;-0.674;2023-02-04T04:23:09;27.40;;;16.27;;
35689;SDS011;26977;44.830;-0.674;2023-02-04T04:25:34;30.13;;;15.25;;
35689;SDS011;26977;44.830;-0.674;2023-02-04T04:28:00;28.17;;;15.15;;
35689;SDS011;26977;44.830;-0.674;2023-02-04T04:30:36;32.70;;;15.70;;
35689;SDS011;26977;44.830;-0.674;2023-02-04T04:33:02;31.70;;;15.52;;
35689;SDS011;26977;44.830;-0.674;2023-02-04T04:35:27;29.23;;;14.93;;
35689;SDS011;26977;44.830;-0.674;2023-02-04T04:37:53;29.55;;;16.45;;
35689;SDS011;26977;44.830;-0.674;2023-02-04T04:40:19;28.00;;;16.30;;
35689;SDS011;26977;44.830;-0.674;2023-02-04T04:42:45;28.75;;;16.20;;
35689;SDS011;26977;44.830;-0.674;2023-02-04T04:45:10;29.50;;;15.18;;
35689;SDS011;26977;44.830;-0.674;2023-02-04T04:47:39;33.30;;;15.73;;
35689;SDS011;26977;44.830;-0.674;2023-02-04T04:50:05;27.90;;;15.82;;
35689;SDS011;26977;44.830;-0.674;2023-02-04T04:52:31;30.17;;;16.13;;
35689;SDS011;26977;44.830;-0.674;2023-02-04T04:54:59;24.75;;;15.43;;
35689;SDS011;26977;44.830;-0.674;2023-02-04T04:57:25;28.27;;;15.23;;
35689;SDS011;26977;44.830;-0.674;2023-02-04T04:59:50;29.65;;;16.50;;
35689;SDS011;26977;44.830;-0.674;2023-02-04T05:02:16;37.28;;;15.88;;
35689;SDS011;26977;44.830;-0.674;2023-02-04T05:04:42;34.92;;;17.25;;
35689;SDS011;26977;44.830;-0.674;2023-02-04T05:07:07;32.25;;;16.10;;
35689;SDS011;26977;44.830;-0.674;2023-02-04T05:09:43;31.42;;;15.93;;
35689;SDS011;26977;44.830;-0.674;2023-02-04T05:12:09;28.48;;;15.93;;
35689;SDS011;26977;44.830;-0.674;2023-02-04T05:14:35;31.92;;;15.07;;
35689;SDS011;26977;44.830;-0.674;2023-02-04T05:17:00;32.53;;;16.00;;
35689;SDS011;26977;44.830;-0.674;2023-02-04T05:19:26;29.75;;;15.88;;
35689;SDS011;26977;44.830;-0.674;2023-02-04T05:21:51;28.75;;;14.95;;
35689;SDS011;26977;44.830;-0.674;2023-02-04T05:24:28;35.03;;;15.55;;
35689;SDS011;26977;44.830;-0.674;2023-02-04T05:26:56;27.35;;;16.00;;
35689;SDS011;26977;44.830;-0.674;2023-02-04T05:29:22;36.58;;;16.80;;
35689;SDS011;26977;44.830;-0.674;2023-02-04T05:31:47;32.20;;;17.00;;
35689;SDS011;26977;44.830;-0.674;2023-02-04T05:34:13;35.28;;;15.43;;
35689;SDS011;26977;44.830;-0.674;2023-02-04T05:36:39;27.30;;;15.50;;
35689;SDS011;26977;44.830;-0.674;2023-02-04T05:39:05;33.65;;;15.48;;
35689;SDS011;26977;44.830;-0.674;2023-02-04T05:41:30;30.42;;;16.50;;
35689;SDS011;26977;44.830;-0.674;2023-02-04T05:43:56;36.55;;;15.88;;
35689;SDS011;26977;44.830;-0.674;2023-02-04T05:46:22;33.20;;;16.17;;
35689;SDS011;26977;44.830;-0.674;2023-02-04T05:48:48;30.00;;;15.25;;
35689;SDS011;26977;44.830;-0.674;2023-02-04T05:51:13;34.13;;;15.93;;
35689;SDS011;26977;44.830;-0.674;2023-02-04T05:53:39;31.20;;;15.45;;
35689;SDS011;26977;44.830;-0.674;2023-02-04T05:56:05;30.30;;;15.63;;
35689;SDS011;26977;44.830;-0.674;2023-02-04T05:58:33;27.15;;;15.00;;
35689;SDS011;26977;44.830;-0.674;2023-02-04T06:00:59;35.80;;;16.08;;
35689;SDS011;26977;44.830;-0.674;2023-02-04T06:03:26;29.48;;;15.85;;
35689;SDS011;26977;44.830;-0.674;2023-02-04T06:05:53;30.98;;;15.70;;
35689;SDS011;26977;44.830;-0.674;2023-02-04T06:08:19;32.92;;;16.25;;
35689;SDS011;26977;44.830;-0.674;2023-02-04T06:10:45;29.38;;;15.15;;
35689;SDS011;26977;44.830;-0.674;2023-02-04T06:13:10;30.60;;;14.82;;
35689;SDS011;26977;44.830;-0.674;2023-02-04T06:15:47;29.10;;;15.25;;
35689;SDS011;26977;44.830;-0.674;2023-02-04T06:18:13;30.58;;;15.38;;
35689;SDS011;26977;44.830;-0.674;2023-02-04T06:20:39;32.80;;;15.50;;
35689;SDS011;26977;44.830;-0.674;2023-02-04T06:23:05;31.45;;;16.20;;
35689;SDS011;26977;44.830;-0.674;2023-02-04T06:25:31;29.58;;;15.57;;
35689;SDS011;26977;44.830;-0.674;2023-02-04T06:27:57;33.20;;;16.85;;
35689;SDS011;26977;44.830;-0.674;2023-02-04T06:30:22;30.13;;;16.00;;
35689;SDS011;26977;44.830;-0.674;2023-02-04T06:32:48;26.42;;;15.52;;
35689;SDS011;26977;44.830;-0.674;2023-02-04T06:35:13;31.60;;;16.58;;
35689;SDS011;26977;44.830;-0.674;2023-02-04T06:37:40;32.53;;;17.73;;
35689;SDS011;26977;44.830;-0.674;2023-02-04T06:40:06;31.30;;;16.90;;
35689;SDS011;26977;44.830;-0.674;2023-02-04T06:42:32;30.55;;;16.70;;
35689;SDS011;26977;44.830;-0.674;2023-02-04T06:44:58;33.78;;;17.75;;
35689;SDS011;26977;44.830;-0.674;2023-02-04T06:47:24;34.92;;;18.90;;
35689;SDS011;26977;44.830;-0.674;2023-02-04T06:49:50;34.13;;;18.98;;
35689;SDS011;26977;44.830;-0.674;2023-02-04T06:52:16;38.55;;;17.85;;
35689;SDS011;26977;44.830;-0.674;2023-02-04T06:54:42;36.55;;;18.20;;
35689;SDS011;26977;44.830;-0.674;2023-02-04T06:57:10;30.45;;;17.50;;
35689;SDS011;26977;44.830;-0.674;2023-02-04T06:59:37;33.83;;;17.17;;
35689;SDS011;26977;44.830;-0.674;2023-02-04T07:02:05;35.10;;;17.48;;
35689;SDS011;26977;44.830;-0.674;2023-02-04T07:04:32;33.78;;;18.13;;
35689;SDS011;26977;44.830;-0.674;2023-02-04T07:06:58;34.28;;;18.02;;
35689;SDS011;26977;44.830;-0.674;2023-02-04T07:09:25;36.75;;;18.05;;
35689;SDS011;26977;44.830;-0.674;2023-02-04T07:11:51;33.38;;;17.58;;
35689;SDS011;26977;44.830;-0.674;2023-02-04T07:14:17;33.90;;;18.67;;
35689;SDS011;26977;44.830;-0.674;2023-02-04T07:16:45;33.67;;;18.42;;
35689;SDS011;26977;44.830;-0.674;2023-02-04T07:19:11;35.22;;;18.17;;
35689;SDS011;26977;44.830;-0.674;2023-02-04T07:21:36;43.80;;;19.65;;
35689;SDS011;26977;44.830;-0.674;2023-02-04T07:24:02;37.17;;;19.35;;
35689;SDS011;26977;44.830;-0.674;2023-02-04T07:26:28;39.03;;;20.17;;
35689;SDS011;26977;44.830;-0.674;2023-02-04T07:28:54;33.67;;;19.40;;
35689;SDS011;26977;44.830;-0.674;2023-02-04T07:31:19;36.47;;;20.10;;
35689;SDS011;26977;44.830;-0.674;2023-02-04T07:33:45;40.63;;;19.73;;
35689;SDS011;26977;44.830;-0.674;2023-02-04T07:36:10;40.63;;;20.10;;
35689;SDS011;26977;44.830;-0.674;2023-02-04T07:38:36;41.95;;;21.20;;
35689;SDS011;26977;44.830;-0.674;2023-02-04T07:41:02;37.60;;;19.40;;
35689;SDS011;26977;44.830;-0.674;2023-02-04T07:43:28;39.25;;;20.05;;
35689;SDS011;26977;44.830;-0.674;2023-02-04T07:45:54;37.00;;;20.23;;
35689;SDS011;26977;44.830;-0.674;2023-02-04T07:48:22;37.92;;;19.70;;
35689;SDS011;26977;44.830;-0.674;2023-02-04T07:50:48;41.22;;;22.17;;
35689;SDS011;26977;44.830;-0.674;2023-02-04T07:53:14;42.85;;;22.13;;
35689;SDS011;26977;44.830;-0.674;2023-02-04T07:55:40;40.80;;;21.35;;
35689;SDS011;26977;44.830;-0.674;2023-02-04T07:58:06;43.95;;;22.38;;
35689;SDS011;26977;44.830;-0.674;2023-02-04T08:00:31;42.42;;;22.55;;
35689;SDS011;26977;44.830;-0.674;2023-02-04T08:02:57;45.13;;;22.63;;
35689;SDS011;26977;44.830;-0.674;2023-02-04T08:05:23;41.83;;;22.67;;
35689;SDS011;26977;44.830;-0.674;2023-02-04T08:07:49;48.72;;;25.17;;
35689;SDS011;26977;44.830;-0.674;2023-02-04T08:10:15;51.03;;;24.95;;
35689;SDS011;26977;44.830;-0.674;2023-02-04T08:12:40;49.83;;;26.55;;
35689;SDS011;26977;44.830;-0.674;2023-02-04T08:15:06;47.10;;;27.27;;
35689;SDS011;26977;44.830;-0.674;2023-02-04T08:17:32;51.65;;;28.60;;
35689;SDS011;26977;44.830;-0.674;2023-02-04T08:19:58;56.97;;;28.73;;
35689;SDS011;26977;44.830;-0.674;2023-02-04T08:22:24;55.85;;;31.80;;
35689;SDS011;26977;44.830;-0.674;2023-02-04T08:25:00;57.17;;;30.90;;
35689;SDS011;26977;44.830;-0.674;2023-02-04T08:27:26;51.58;;;30.75;;
35689;SDS011;26977;44.830;-0.674;2023-02-04T08:29:51;56.15;;;29.65;;
35689;SDS011;26977;44.830;-0.674;2023-02-04T08:32:19;51.55;;;27.15;;
35689;SDS011;26977;44.830;-0.674;2023-02-04T08:34:44;51.75;;;28.42;;
35689;SDS011;26977;44.830;-0.674;2023-02-04T08:37:21;53.83;;;28.23;;
35689;SDS011;26977;44.830;-0.674;2023-02-04T08:39:47;51.55;;;27.58;;
35689;SDS011;26977;44.830;-0.674;2023-02-04T08:42:13;49.78;;;28.33;;
35689;SDS011;26977;44.830;-0.674;2023-02-04T08:44:39;52.60;;;29.30;;
35689;SDS011;26977;44.830;-0.674;2023-02-04T08:47:05;48.50;;;28.38;;
35689;SDS011;26977;44.830;-0.674;2023-02-04T08:49:31;47.13;;;28.08;;
35689;SDS011;26977;44.830;-0.674;2023-02-04T08:51:57;47.00;;;27.77;;
35689;SDS011;26977;44.830;-0.674;2023-02-04T08:54:23;51.55;;;28.38;;
35689;SDS011;26977;44.830;-0.674;2023-02-04T08:56:50;50.00;;;29.00;;
35689;SDS011;26977;44.830;-0.674;2023-02-04T08:59:16;50.30;;;28.35;;
35689;SDS011;26977;44.830;-0.674;2023-02-04T09:01:41;51.05;;;30.27;;
35689;SDS011;26977;44.830;-0.674;2023-02-04T09:04:07;50.95;;;30.67;;
35689;SDS011;26977;44.830;-0.674;2023-02-04T09:06:33;55.33;;;30.70;;
35689;SDS011;26977;44.830;-0.674;2023-02-04T09:08:58;51.17;;;31.23;;
35689;SDS011;26977;44.830;-0.674;2023-02-04T09:11:24;59.40;;;33.10;;
35689;SDS011;26977;44.830;-0.674;2023-02-04T09:13:50;50.53;;;33.03;;
35689;SDS011;26977;44.830;-0.674;2023-02-04T09:16:16;54.20;;;33.70;;
35689;SDS011;26977;44.830;-0.674;2023-02-04T09:18:42;46.95;;;31.92;;
35689;SDS011;26977;44.830;-0.674;2023-02-04T09:21:08;46.47;;;30.48;;
35689;SDS011;26977;44.830;-0.674;2023-02-04T09:23:34;45.58;;;27.42;;
35689;SDS011;26977;44.830;-0.674;2023-02-04T09:25:59;39.55;;;25.63;;
35689;SDS011;26977;44.830;-0.674;2023-02-04T09:28:25;40.50;;;24.92;;
35689;SDS011;26977;44.830;-0.674;2023-02-04T09:31:01;38.40;;;23.08;;
35689;SDS011;26977;44.830;-0.674;2023-02-04T09:33:27;32.25;;;21.17;;
35689;SDS011;26977;44.830;-0.674;2023-02-04T09:35:52;32.50;;;21.13;;
35689;SDS011;26977;44.830;-0.674;2023-02-04T09:38:19;29.42;;;19.70;;
35689;SDS011;26977;44.830;-0.674;2023-02-04T09:40:47;28.13;;;17.70;;
35689;SDS011;26977;44.830;-0.674;2023-02-04T09:43:41;26.30;;;17.15;;
35689;SDS011;26977;44.830;-0.674;2023-02-04T09:46:13;27.23;;;16.23;;
35689;SDS011;26977;44.830;-0.674;2023-02-04T09:48:45;23.63;;;14.85;;
35689;SDS011;26977;44.830;-0.674;2023-02-04T09:51:12;28.40;;;15.65;;
35689;SDS011;26977;44.830;-0.674;2023-02-04T09:53:41;28.17;;;16.50;;
35689;SDS011;26977;44.830;-0.674;2023-02-04T09:56:08;20.70;;;14.27;;
35689;SDS011;26977;44.830;-0.674;2023-02-04T09:58:35;24.38;;;15.23;;
35689;SDS011;26977;44.830;-0.674;2023-02-04T10:03:41;22.98;;;13.50;;
35689;SDS011;26977;44.830;-0.674;2023-02-04T10:06:14;25.05;;;14.23;;
35689;SDS011;26977;44.830;-0.674;2023-02-04T10:08:42;26.30;;;14.65;;
35689;SDS011;26977;44.830;-0.674;2023-02-04T10:11:09;20.42;;;13.15;;
35689;SDS011;26977;44.830;-0.674;2023-02-04T10:13:37;22.10;;;13.55;;
35689;SDS011;26977;44.830;-0.674;2023-02-04T10:16:27;19.98;;;12.73;;
35689;SDS011;26977;44.830;-0.674;2023-02-04T10:18:56;28.00;;;13.25;;
35689;SDS011;26977;44.830;-0.674;2023-02-04T10:21:27;27.35;;;13.93;;
35689;SDS011;26977;44.830;-0.674;2023-02-04T10:23:59;24.15;;;13.60;;
35689;SDS011;26977;44.830;-0.674;2023-02-04T10:26:28;24.80;;;13.57;;
35689;SDS011;26977;44.830;-0.674;2023-02-04T10:29:02;21.13;;;12.00;;
35689;SDS011;26977;44.830;-0.674;2023-02-04T10:31:33;20.67;;;12.35;;
35689;SDS011;26977;44.830;-0.674;2023-02-04T10:36:33;19.58;;;12.43;;
35689;SDS011;26977;44.830;-0.674;2023-02-04T10:39:18;21.10;;;11.68;;
35689;SDS011;26977;44.830;-0.674;2023-02-04T10:41:49;17.70;;;11.60;;
35689;SDS011;26977;44.830;-0.674;2023-02-04T10:44:33;17.13;;;10.98;;
35689;SDS011;26977;44.830;-0.674;2023-02-04T10:49:30;18.80;;;10.45;;
35689;SDS011;26977;44.830;-0.674;2023-02-04T10:51:56;18.25;;;10.82;;
35689;SDS011;26977;44.830;-0.674;2023-02-04T10:54:24;20.38;;;10.60;;
35689;SDS011;26977;44.830;-0.674;2023-02-04T10:59:39;17.52;;;10.60;;
35689;SDS011;26977;44.830;-0.674;2023-02-04T11:04:59;17.35;;;10.45;;
35689;SDS011;26977;44.830;-0.674;2023-02-04T11:07:26;17.35;;;10.00;;
35689;SDS011;26977;44.830;-0.674;2023-02-04T11:09:53;16.25;;;9.88;;
35689;SDS011;26977;44.830;-0.674;2023-02-04T11:12:23;15.82;;;10.20;;
35689;SDS011;26977;44.830;-0.674;2023-02-04T11:15:04;17.05;;;10.25;;
35689;SDS011;26977;44.830;-0.674;2023-02-04T11:17:31;17.30;;;9.20;;
35689;SDS011;26977;44.830;-0.674;2023-02-04T11:19:58;15.38;;;9.35;;
35689;SDS011;26977;44.830;-0.674;2023-02-04T11:22:44;15.65;;;9.48;;
35689;SDS011;26977;44.830;-0.674;2023-02-04T11:25:33;17.38;;;9.48;;
35689;SDS011;26977;44.830;-0.674;2023-02-04T11:28:11;17.53;;;9.47;;
35689;SDS011;26977;44.830;-0.674;2023-02-04T11:30:38;14.18;;;9.13;;
35689;SDS011;26977;44.830;-0.674;2023-02-04T11:33:04;16.35;;;9.13;;
35689;SDS011;26977;44.830;-0.674;2023-02-04T11:35:55;19.52;;;9.25;;
35689;SDS011;26977;44.830;-0.674;2023-02-04T11:38:28;13.18;;;8.55;;
35689;SDS011;26977;44.830;-0.674;2023-02-04T11:40:56;17.88;;;9.30;;
35689;SDS011;26977;44.830;-0.674;2023-02-04T11:43:23;13.93;;;8.88;;
35689;SDS011;26977;44.830;-0.674;2023-02-04T11:46:00;19.50;;;10.48;;
35689;SDS011;26977;44.830;-0.674;2023-02-04T11:48:36;21.55;;;12.05;;
35689;SDS011;26977;44.830;-0.674;2023-02-04T11:51:02;18.98;;;10.80;;
35689;SDS011;26977;44.830;-0.674;2023-02-04T11:53:36;15.68;;;9.77;;
35689;SDS011;26977;44.830;-0.674;2023-02-04T11:56:05;14.52;;;9.75;;
35689;SDS011;26977;44.830;-0.674;2023-02-04T11:58:30;13.82;;;9.05;;
35689;SDS011;26977;44.830;-0.674;2023-02-04T12:01:03;16.50;;;9.52;;
35689;SDS011;26977;44.830;-0.674;2023-02-04T12:03:29;14.63;;;9.40;;
35689;SDS011;26977;44.830;-0.674;2023-02-04T12:05:58;15.90;;;9.68;;
35689;SDS011;26977;44.830;-0.674;2023-02-04T12:08:25;18.90;;;10.45;;
35689;SDS011;26977;44.830;-0.674;2023-02-04T12:11:02;15.95;;;10.10;;
35689;SDS011;26977;44.830;-0.674;2023-02-04T12:13:31;16.20;;;10.25;;
35689;SDS011;26977;44.830;-0.674;2023-02-04T12:16:02;18.10;;;9.88;;
35689;SDS011;26977;44.830;-0.674;2023-02-04T12:18:30;14.23;;;8.75;;
35689;SDS011;26977;44.830;-0.674;2023-02-04T12:20:58;17.83;;;9.82;;
35689;SDS011;26977;44.830;-0.674;2023-02-04T12:23:25;11.90;;;7.13;;
35689;SDS011;26977;44.830;-0.674;2023-02-04T12:25:54;10.48;;;6.47;;
35689;SDS011;26977;44.830;-0.674;2023-02-04T12:28:20;9.93;;;6.57;;
35689;SDS011;26977;44.830;-0.674;2023-02-04T12:30:46;10.23;;;6.03;;
35689;SDS011;26977;44.830;-0.674;2023-02-04T12:33:11;11.30;;;6.03;;
35689;SDS011;26977;44.830;-0.674;2023-02-04T12:35:38;9.52;;;5.57;;
35689;SDS011;26977;44.830;-0.674;2023-02-04T12:38:04;10.25;;;6.03;;
35689;SDS011;26977;44.830;-0.674;2023-02-04T12:40:29;10.00;;;6.05;;
35689;SDS011;26977;44.830;-0.674;2023-02-04T12:42:55;11.85;;;6.65;;
35689;SDS011;26977;44.830;-0.674;2023-02-04T12:45:21;12.75;;;5.47;;
35689;SDS011;26977;44.830;-0.674;2023-02-04T12:47:47;10.05;;;5.68;;
35689;SDS011;26977;44.830;-0.674;2023-02-04T12:50:13;9.60;;;5.07;;
35689;SDS011;26977;44.830;-0.674;2023-02-04T12:52:46;11.23;;;5.63;;
35689;SDS011;26977;44.830;-0.674;2023-02-04T12:55:16;10.90;;;5.95;;
35689;SDS011;26977;44.830;-0.674;2023-02-04T12:57:42;8.73;;;5.53;;
35689;SDS011;26977;44.830;-0.674;2023-02-04T13:00:11;7.40;;;4.85;;
35689;SDS011;26977;44.830;-0.674;2023-02-04T13:02:38;7.75;;;5.07;;
35689;SDS011;26977;44.830;-0.674;2023-02-04T13:05:04;8.55;;;4.80;;
35689;SDS011;26977;44.830;-0.674;2023-02-04T13:07:30;8.50;;;4.65;;
35689;SDS011;26977;44.830;-0.674;2023-02-04T13:09:57;7.18;;;4.53;;
35689;SDS011;26977;44.830;-0.674;2023-02-04T13:12:23;13.05;;;5.32;;
35689;SDS011;26977;44.830;-0.674;2023-02-04T13:14:49;8.95;;;5.20;;
35689;SDS011;26977;44.830;-0.674;2023-02-04T13:17:15;7.57;;;4.40;;
35689;SDS011;26977;44.830;-0.674;2023-02-04T13:19:41;8.07;;;4.40;;
35689;SDS011;26977;44.830;-0.674;2023-02-04T13:22:17;8.77;;;5.13;;
35689;SDS011;26977;44.830;-0.674;2023-02-04T13:24:43;9.75;;;4.55;;
35689;SDS011;26977;44.830;-0.674;2023-02-04T13:27:20;9.02;;;4.25;;
35689;SDS011;26977;44.830;-0.674;2023-02-04T13:29:45;8.57;;;4.45;;
35689;SDS011;26977;44.830;-0.674;2023-02-04T13:32:11;8.60;;;4.30;;
35689;SDS011;26977;44.830;-0.674;2023-02-04T13:34:37;6.63;;;4.40;;
35689;SDS011;26977;44.830;-0.674;2023-02-04T13:37:03;5.18;;;3.85;;
35689;SDS011;26977;44.830;-0.674;2023-02-04T13:39:28;5.85;;;4.03;;
35689;SDS011;26977;44.830;-0.674;2023-02-04T13:41:54;9.25;;;5.22;;
35689;SDS011;26977;44.830;-0.674;2023-02-04T13:44:20;7.80;;;4.57;;
35689;SDS011;26977;44.830;-0.674;2023-02-04T13:46:45;9.05;;;4.53;;
35689;SDS011;26977;44.830;-0.674;2023-02-04T13:49:11;9.10;;;4.60;;
35689;SDS011;26977;44.830;-0.674;2023-02-04T13:51:37;6.15;;;3.83;;
35689;SDS011;26977;44.830;-0.674;2023-02-04T13:54:03;8.90;;;3.47;;
35689;SDS011;26977;44.830;-0.674;2023-02-04T13:56:28;6.78;;;3.20;;
35689;SDS011;26977;44.830;-0.674;2023-02-04T13:58:56;5.20;;;2.67;;
35689;SDS011;26977;44.830;-0.674;2023-02-04T14:01:22;5.13;;;2.70;;
35689;SDS011;26977;44.830;-0.674;2023-02-04T14:03:48;5.70;;;2.60;;
35689;SDS011;26977;44.830;-0.674;2023-02-04T14:06:14;5.57;;;2.78;;
35689;SDS011;26977;44.830;-0.674;2023-02-04T14:08:40;7.38;;;3.47;;
35689;SDS011;26977;44.830;-0.674;2023-02-04T14:11:05;3.35;;;2.30;;
35689;SDS011;26977;44.830;-0.674;2023-02-04T14:13:31;5.75;;;2.67;;
35689;SDS011;26977;44.830;-0.674;2023-02-04T14:15:57;5.70;;;2.50;;
35689;SDS011;26977;44.830;-0.674;2023-02-04T14:18:23;5.22;;;2.72;;
35689;SDS011;26977;44.830;-0.674;2023-02-04T14:20:49;5.40;;;2.70;;
35689;SDS011;26977;44.830;-0.674;2023-02-04T14:23:14;6.55;;;3.10;;
35689;SDS011;26977;44.830;-0.674;2023-02-04T14:25:40;4.63;;;2.63;;
35689;SDS011;26977;44.830;-0.674;2023-02-04T14:28:06;5.30;;;2.67;;